sensor_id;sensor_type;location;lat;lon;timestamp;P1;durP1;ratioP1;P2;durP2;ratioP2
10910;SDS011;5508;49.150;11.030;2023-04-30T00:01:11;11.77;;;8.27;;
10910;SDS011;5508;49.150;11.030;2023-04-30T00:04:11;9.50;;;8.50;;
10910;SDS011;5508;49.150;11.030;2023-04-30T00:07:12;9.13;;;8.23;;
10910;SDS011;5508;49.150;11.030;2023-04-30T00:10:13;10.57;;;9.13;;
10910;SDS011;5508;49.150;11.030;2023-04-30T00:13:13;11.87;;;8.87;;
10910;SDS011;5508;49.150;11.030;2023-04-30T00:16:14;13.00;;;8.67;;
10910;SDS011;5508;49.150;11.030;2023-04-30T00:19:15;14.53;;;8.77;;
10910;SDS011;5508;49.150;11.030;2023-04-30T00:22:15;10.60;;;8.50;;
10910;SDS011;5508;49.150;11.030;2023-04-30T00:25:16;9.10;;;8.20;;
10910;SDS011;5508;49.150;11.030;2023-04-30T00:28:17;9.63;;;8.10;;
10910;SDS011;5508;49.150;11.030;2023-04-30T00:31:17;9.90;;;8.50;;
10910;SDS011;5508;49.150;11.030;2023-04-30T00:34:18;11.40;;;9.47;;
10910;SDS011;5508;49.150;11.030;2023-04-30T00:37:18;11.10;;;9.90;;
10910;SDS011;5508;49.150;11.030;2023-04-30T00:40:19;13.37;;;10.83;;
10910;SDS011;5508;49.150;11.030;2023-04-30T00:43:20;16.00;;;11.63;;
10910;SDS011;5508;49.150;11.030;2023-04-30T00:46:20;12.73;;;11.27;;
10910;SDS011;5508;49.150;11.030;2023-04-30T00:49:21;14.17;;;10.70;;
10910;SDS011;5508;49.150;11.030;2023-04-30T00:52:22;10.33;;;9.23;;
10910;SDS011;5508;49.150;11.030;2023-04-30T00:55:22;10.83;;;9.67;;
10910;SDS011;5508;49.150;11.030;2023-04-30T00:58:23;11.30;;;9.03;;
10910;SDS011;5508;49.150;11.030;2023-04-30T01:01:25;11.70;;;7.30;;
10910;SDS011;5508;49.150;11.030;2023-04-30T01:04:27;7.13;;;6.30;;
10910;SDS011;5508;49.150;11.030;2023-04-30T01:07:29;6.90;;;6.27;;
10910;SDS011;5508;49.150;11.030;2023-04-30T01:10:31;9.10;;;6.63;;
10910;SDS011;5508;49.150;11.030;2023-04-30T01:17:31;7.53;;;6.83;;
10910;SDS011;5508;49.150;11.030;2023-04-30T01:20:42;8.50;;;7.70;;
10910;SDS011;5508;49.150;11.030;2023-04-30T01:30:37;6.90;;;6.30;;
10910;SDS011;5508;49.150;11.030;2023-04-30T01:33:39;7.13;;;6.10;;
10910;SDS011;5508;49.150;11.030;2023-04-30T01:43:31;7.07;;;6.37;;
10910;SDS011;5508;49.150;11.030;2023-04-30T01:46:39;11.30;;;6.47;;
10910;SDS011;5508;49.150;11.030;2023-04-30T01:49:53;7.27;;;6.17;;
10910;SDS011;5508;49.150;11.030;2023-04-30T01:53:04;7.87;;;6.83;;
10910;SDS011;5508;49.150;11.030;2023-04-30T01:56:15;10.90;;;7.67;;
10910;SDS011;5508;49.150;11.030;2023-04-30T01:59:21;8.37;;;6.53;;
10910;SDS011;5508;49.150;11.030;2023-04-30T02:02:22;9.67;;;7.47;;
10910;SDS011;5508;49.150;11.030;2023-04-30T02:05:23;8.57;;;6.90;;
10910;SDS011;5508;49.150;11.030;2023-04-30T02:08:24;7.93;;;7.13;;
10910;SDS011;5508;49.150;11.030;2023-04-30T02:11:24;8.13;;;7.23;;
10910;SDS011;5508;49.150;11.030;2023-04-30T02:14:25;7.73;;;6.77;;
10910;SDS011;5508;49.150;11.030;2023-04-30T02:17:26;8.00;;;7.20;;
10910;SDS011;5508;49.150;11.030;2023-04-30T02:20:27;8.40;;;6.87;;
10910;SDS011;5508;49.150;11.030;2023-04-30T02:23:27;9.30;;;6.97;;
10910;SDS011;5508;49.150;11.030;2023-04-30T02:26:28;7.30;;;6.60;;
10910;SDS011;5508;49.150;11.030;2023-04-30T02:29:29;7.77;;;7.07;;
10910;SDS011;5508;49.150;11.030;2023-04-30T02:32:29;7.63;;;6.93;;
10910;SDS011;5508;49.150;11.030;2023-04-30T02:35:30;7.90;;;7.13;;
10910;SDS011;5508;49.150;11.030;2023-04-30T02:38:30;7.20;;;6.50;;
10910;SDS011;5508;49.150;11.030;2023-04-30T02:41:31;8.17;;;7.37;;
10910;SDS011;5508;49.150;11.030;2023-04-30T02:44:32;6.60;;;6.00;;
10910;SDS011;5508;49.150;11.030;2023-04-30T02:47:33;7.73;;;6.47;;
10910;SDS011;5508;49.150;11.030;2023-04-30T02:50:33;8.03;;;7.23;;
10910;SDS011;5508;49.150;11.030;2023-04-30T02:53:34;8.00;;;7.20;;
10910;SDS011;5508;49.150;11.030;2023-04-30T02:56:35;9.23;;;6.97;;
10910;SDS011;5508;49.150;11.030;2023-04-30T02:59:35;8.07;;;7.27;;
10910;SDS011;5508;49.150;11.030;2023-04-30T03:02:37;8.57;;;7.10;;
10910;SDS011;5508;49.150;11.030;2023-04-30T03:05:38;8.93;;;7.17;;
10910;SDS011;5508;49.150;11.030;2023-04-30T03:08:39;8.27;;;7.47;;
10910;SDS011;5508;49.150;11.030;2023-04-30T03:11:39;7.30;;;6.60;;
10910;SDS011;5508;49.150;11.030;2023-04-30T03:14:40;7.00;;;6.30;;
10910;SDS011;5508;49.150;11.030;2023-04-30T03:17:40;8.73;;;7.50;;
10910;SDS011;5508;49.150;11.030;2023-04-30T03:20:41;12.00;;;7.23;;
10910;SDS011;5508;49.150;11.030;2023-04-30T03:23:42;7.73;;;6.80;;
10910;SDS011;5508;49.150;11.030;2023-04-30T03:26:42;9.20;;;8.30;;
10910;SDS011;5508;49.150;11.030;2023-04-30T03:29:43;8.03;;;7.23;;
10910;SDS011;5508;49.150;11.030;2023-04-30T03:32:43;9.13;;;8.23;;
10910;SDS011;5508;49.150;11.030;2023-04-30T03:35:44;11.00;;;8.40;;
10910;SDS011;5508;49.150;11.030;2023-04-30T03:38:45;10.50;;;9.50;;
10910;SDS011;5508;49.150;11.030;2023-04-30T03:41:45;10.30;;;9.40;;
10910;SDS011;5508;49.150;11.030;2023-04-30T03:44:46;10.43;;;8.93;;
10910;SDS011;5508;49.150;11.030;2023-04-30T03:47:47;11.50;;;9.23;;
10910;SDS011;5508;49.150;11.030;2023-04-30T03:50:48;11.27;;;10.17;;
10910;SDS011;5508;49.150;11.030;2023-04-30T03:53:48;10.67;;;9.57;;
10910;SDS011;5508;49.150;11.030;2023-04-30T03:56:49;12.07;;;10.13;;
10910;SDS011;5508;49.150;11.030;2023-04-30T03:59:50;11.43;;;9.63;;
10910;SDS011;5508;49.150;11.030;2023-04-30T04:02:50;11.43;;;10.23;;
10910;SDS011;5508;49.150;11.030;2023-04-30T04:05:51;11.20;;;10.10;;
10910;SDS011;5508;49.150;11.030;2023-04-30T04:08:52;12.43;;;9.63;;
10910;SDS011;5508;49.150;11.030;2023-04-30T04:11:52;11.90;;;9.17;;
10910;SDS011;5508;49.150;11.030;2023-04-30T04:14:53;11.43;;;10.33;;
10910;SDS011;5508;49.150;11.030;2023-04-30T04:17:53;10.70;;;9.60;;
10910;SDS011;5508;49.150;11.030;2023-04-30T04:20:54;11.33;;;9.37;;
10910;SDS011;5508;49.150;11.030;2023-04-30T04:23:55;11.23;;;10.17;;
10910;SDS011;5508;49.150;11.030;2023-04-30T04:26:56;11.63;;;10.43;;
10910;SDS011;5508;49.150;11.030;2023-04-30T04:29:57;12.13;;;10.83;;
10910;SDS011;5508;49.150;11.030;2023-04-30T04:32:57;14.07;;;10.83;;
10910;SDS011;5508;49.150;11.030;2023-04-30T04:35:59;11.30;;;10.10;;
10910;SDS011;5508;49.150;11.030;2023-04-30T04:39:00;12.87;;;11.10;;
10910;SDS011;5508;49.150;11.030;2023-04-30T04:42:03;12.97;;;11.07;;
10910;SDS011;5508;49.150;11.030;2023-04-30T04:45:07;12.10;;;10.90;;
10910;SDS011;5508;49.150;11.030;2023-04-30T04:48:08;14.57;;;11.60;;
10910;SDS011;5508;49.150;11.030;2023-04-30T04:51:09;13.00;;;11.10;;
10910;SDS011;5508;49.150;11.030;2023-04-30T04:54:10;12.00;;;10.80;;
10910;SDS011;5508;49.150;11.030;2023-04-30T04:57:10;12.93;;;11.03;;
10910;SDS011;5508;49.150;11.030;2023-04-30T05:00:12;14.83;;;13.27;;
10910;SDS011;5508;49.150;11.030;2023-04-30T05:03:13;13.27;;;11.97;;
10910;SDS011;5508;49.150;11.030;2023-04-30T05:06:13;13.93;;;12.43;;
10910;SDS011;5508;49.150;11.030;2023-04-30T05:09:14;13.17;;;11.63;;
10910;SDS011;5508;49.150;11.030;2023-04-30T05:12:15;12.90;;;11.63;;
10910;SDS011;5508;49.150;11.030;2023-04-30T05:15:15;12.47;;;11.27;;
10910;SDS011;5508;49.150;11.030;2023-04-30T05:18:16;12.47;;;11.17;;
10910;SDS011;5508;49.150;11.030;2023-04-30T05:21:17;12.77;;;11.47;;
10910;SDS011;5508;49.150;11.030;2023-04-30T05:24:17;12.73;;;11.47;;
10910;SDS011;5508;49.150;11.030;2023-04-30T05:27:18;15.03;;;12.00;;
10910;SDS011;5508;49.150;11.030;2023-04-30T05:30:19;12.50;;;11.20;;
10910;SDS011;5508;49.150;11.030;2023-04-30T05:33:19;12.37;;;11.07;;
10910;SDS011;5508;49.150;11.030;2023-04-30T05:36:20;14.60;;;12.63;;
10910;SDS011;5508;49.150;11.030;2023-04-30T05:39:20;14.20;;;12.37;;
10910;SDS011;5508;49.150;11.030;2023-04-30T05:42:21;13.73;;;12.37;;
10910;SDS011;5508;49.150;11.030;2023-04-30T05:45:21;12.83;;;11.57;;
10910;SDS011;5508;49.150;11.030;2023-04-30T05:48:22;12.57;;;11.37;;
10910;SDS011;5508;49.150;11.030;2023-04-30T05:51:23;12.20;;;11.00;;
10910;SDS011;5508;49.150;11.030;2023-04-30T05:54:23;12.57;;;11.27;;
10910;SDS011;5508;49.150;11.030;2023-04-30T05:57:24;11.83;;;10.63;;
10910;SDS011;5508;49.150;11.030;2023-04-30T06:00:25;12.67;;;11.47;;
10910;SDS011;5508;49.150;11.030;2023-04-30T06:03:25;12.57;;;11.30;;
10910;SDS011;5508;49.150;11.030;2023-04-30T06:06:26;13.97;;;12.53;;
10910;SDS011;5508;49.150;11.030;2023-04-30T06:09:27;14.40;;;12.90;;
10910;SDS011;5508;49.150;11.030;2023-04-30T06:12:27;15.67;;;12.30;;
10910;SDS011;5508;49.150;11.030;2023-04-30T06:15:28;14.40;;;12.90;;
10910;SDS011;5508;49.150;11.030;2023-04-30T06:18:29;16.67;;;13.53;;
10910;SDS011;5508;49.150;11.030;2023-04-30T06:21:29;13.67;;;12.23;;
10910;SDS011;5508;49.150;11.030;2023-04-30T06:24:30;13.97;;;12.43;;
10910;SDS011;5508;49.150;11.030;2023-04-30T06:27:31;13.80;;;12.50;;
10910;SDS011;5508;49.150;11.030;2023-04-30T06:30:32;14.20;;;12.80;;
10910;SDS011;5508;49.150;11.030;2023-04-30T06:33:33;13.67;;;12.07;;
10910;SDS011;5508;49.150;11.030;2023-04-30T06:36:33;15.03;;;13.50;;
10910;SDS011;5508;49.150;11.030;2023-04-30T06:39:34;15.23;;;12.50;;
10910;SDS011;5508;49.150;11.030;2023-04-30T06:42:35;12.97;;;11.57;;
10910;SDS011;5508;49.150;11.030;2023-04-30T06:45:35;13.20;;;11.13;;
10910;SDS011;5508;49.150;11.030;2023-04-30T06:48:36;12.93;;;11.07;;
10910;SDS011;5508;49.150;11.030;2023-04-30T06:51:37;14.27;;;12.17;;
10910;SDS011;5508;49.150;11.030;2023-04-30T06:54:37;14.63;;;13.23;;
10910;SDS011;5508;49.150;11.030;2023-04-30T06:57:38;13.27;;;11.97;;
10910;SDS011;5508;49.150;11.030;2023-04-30T07:00:39;13.10;;;11.80;;
10910;SDS011;5508;49.150;11.030;2023-04-30T07:03:39;11.93;;;10.83;;
10910;SDS011;5508;49.150;11.030;2023-04-30T07:06:40;13.50;;;12.20;;
10910;SDS011;5508;49.150;11.030;2023-04-30T07:09:41;15.23;;;12.63;;
10910;SDS011;5508;49.150;11.030;2023-04-30T07:12:41;14.27;;;12.77;;
10910;SDS011;5508;49.150;11.030;2023-04-30T07:15:42;13.00;;;11.70;;
10910;SDS011;5508;49.150;11.030;2023-04-30T07:18:43;12.47;;;11.20;;
10910;SDS011;5508;49.150;11.030;2023-04-30T07:21:44;11.50;;;10.37;;
10910;SDS011;5508;49.150;11.030;2023-04-30T07:24:45;11.83;;;10.73;;
10910;SDS011;5508;49.150;11.030;2023-04-30T07:27:46;12.97;;;11.27;;
10910;SDS011;5508;49.150;11.030;2023-04-30T07:30:46;11.80;;;10.60;;
10910;SDS011;5508;49.150;11.030;2023-04-30T07:33:47;11.87;;;10.53;;
10910;SDS011;5508;49.150;11.030;2023-04-30T07:36:49;12.13;;;10.50;;
10910;SDS011;5508;49.150;11.030;2023-04-30T07:39:50;10.40;;;9.30;;
10910;SDS011;5508;49.150;11.030;2023-04-30T07:42:50;11.03;;;10.03;;
10910;SDS011;5508;49.150;11.030;2023-04-30T07:45:51;12.33;;;9.70;;
10910;SDS011;5508;49.150;11.030;2023-04-30T07:48:53;10.17;;;9.20;;
10910;SDS011;5508;49.150;11.030;2023-04-30T07:51:53;11.13;;;10.03;;
10910;SDS011;5508;49.150;11.030;2023-04-30T07:54:55;11.07;;;9.90;;
10910;SDS011;5508;49.150;11.030;2023-04-30T07:57:55;10.10;;;9.07;;
10910;SDS011;5508;49.150;11.030;2023-04-30T08:00:56;9.67;;;8.77;;
10910;SDS011;5508;49.150;11.030;2023-04-30T08:03:57;10.87;;;8.33;;
10910;SDS011;5508;49.150;11.030;2023-04-30T08:06:57;9.40;;;8.50;;
10910;SDS011;5508;49.150;11.030;2023-04-30T08:09:58;9.37;;;8.27;;
10910;SDS011;5508;49.150;11.030;2023-04-30T08:12:58;8.47;;;7.67;;
10910;SDS011;5508;49.150;11.030;2023-04-30T08:15:59;11.13;;;7.63;;
10910;SDS011;5508;49.150;11.030;2023-04-30T08:19:00;9.07;;;7.27;;
10910;SDS011;5508;49.150;11.030;2023-04-30T08:22:00;6.13;;;5.60;;
10910;SDS011;5508;49.150;11.030;2023-04-30T08:25:01;8.93;;;6.30;;
10910;SDS011;5508;49.150;11.030;2023-04-30T08:28:02;5.80;;;5.27;;
10910;SDS011;5508;49.150;11.030;2023-04-30T08:31:02;6.23;;;5.30;;
10910;SDS011;5508;49.150;11.030;2023-04-30T08:34:03;6.53;;;5.83;;
10910;SDS011;5508;49.150;11.030;2023-04-30T08:37:04;7.83;;;6.27;;
10910;SDS011;5508;49.150;11.030;2023-04-30T08:40:04;6.70;;;6.10;;
10910;SDS011;5508;49.150;11.030;2023-04-30T08:43:08;8.10;;;5.90;;
10910;SDS011;5508;49.150;11.030;2023-04-30T08:46:11;11.30;;;6.47;;
10910;SDS011;5508;49.150;11.030;2023-04-30T08:49:16;7.33;;;6.07;;
10910;SDS011;5508;49.150;11.030;2023-04-30T08:52:17;6.53;;;5.93;;
10910;SDS011;5508;49.150;11.030;2023-04-30T08:55:18;6.00;;;5.40;;
10910;SDS011;5508;49.150;11.030;2023-04-30T08:58:19;6.73;;;6.07;;
10910;SDS011;5508;49.150;11.030;2023-04-30T09:01:19;4.30;;;3.90;;
10910;SDS011;5508;49.150;11.030;2023-04-30T09:04:20;4.80;;;4.13;;
10910;SDS011;5508;49.150;11.030;2023-04-30T09:07:21;4.80;;;4.13;;
10910;SDS011;5508;49.150;11.030;2023-04-30T09:10:24;6.43;;;5.47;;
10910;SDS011;5508;49.150;11.030;2023-04-30T09:13:39;7.20;;;5.00;;
10910;SDS011;5508;49.150;11.030;2023-04-30T09:16:47;5.80;;;5.17;;
10910;SDS011;5508;49.150;11.030;2023-04-30T09:19:49;6.13;;;5.47;;
10910;SDS011;5508;49.150;11.030;2023-04-30T09:22:51;6.67;;;5.97;;
10910;SDS011;5508;49.150;11.030;2023-04-30T09:26:07;6.37;;;5.60;;
10910;SDS011;5508;49.150;11.030;2023-04-30T09:29:08;7.30;;;6.60;;
10910;SDS011;5508;49.150;11.030;2023-04-30T09:32:09;10.00;;;6.60;;
10910;SDS011;5508;49.150;11.030;2023-04-30T09:35:27;5.53;;;4.87;;
10910;SDS011;5508;49.150;11.030;2023-04-30T09:38:29;5.37;;;4.70;;
10910;SDS011;5508;49.150;11.030;2023-04-30T09:41:31;7.97;;;5.40;;
10910;SDS011;5508;49.150;11.030;2023-04-30T09:44:35;5.43;;;4.00;;
10910;SDS011;5508;49.150;11.030;2023-04-30T09:47:37;4.70;;;4.27;;
10910;SDS011;5508;49.150;11.030;2023-04-30T09:50:39;4.33;;;3.93;;
10910;SDS011;5508;49.150;11.030;2023-04-30T09:53:41;4.53;;;3.63;;
10910;SDS011;5508;49.150;11.030;2023-04-30T09:56:42;9.70;;;6.90;;
10910;SDS011;5508;49.150;11.030;2023-04-30T09:59:44;6.70;;;4.03;;
10910;SDS011;5508;49.150;11.030;2023-04-30T10:02:45;3.70;;;3.40;;
10910;SDS011;5508;49.150;11.030;2023-04-30T10:05:47;9.10;;;4.47;;
10910;SDS011;5508;49.150;11.030;2023-04-30T10:08:55;4.67;;;4.27;;
10910;SDS011;5508;49.150;11.030;2023-04-30T10:11:56;7.87;;;4.63;;
10910;SDS011;5508;49.150;11.030;2023-04-30T10:14:58;4.80;;;4.30;;
10910;SDS011;5508;49.150;11.030;2023-04-30T10:18:30;5.27;;;4.77;;
10910;SDS011;5508;49.150;11.030;2023-04-30T10:21:39;5.50;;;5.00;;
10910;SDS011;5508;49.150;11.030;2023-04-30T10:24:41;5.67;;;5.07;;
10910;SDS011;5508;49.150;11.030;2023-04-30T10:27:44;4.37;;;3.83;;
10910;SDS011;5508;49.150;11.030;2023-04-30T10:30:45;5.07;;;4.57;;
10910;SDS011;5508;49.150;11.030;2023-04-30T10:38:12;4.90;;;4.37;;
10910;SDS011;5508;49.150;11.030;2023-04-30T10:40:56;4.73;;;4.30;;
10910;SDS011;5508;49.150;11.030;2023-04-30T10:44:00;4.63;;;4.20;;
10910;SDS011;5508;49.150;11.030;2023-04-30T10:47:02;4.30;;;3.90;;
10910;SDS011;5508;49.150;11.030;2023-04-30T10:50:07;4.50;;;4.10;;
10910;SDS011;5508;49.150;11.030;2023-04-30T10:53:11;4.63;;;4.03;;
10910;SDS011;5508;49.150;11.030;2023-04-30T10:56:32;5.17;;;4.30;;
10910;SDS011;5508;49.150;11.030;2023-04-30T10:59:33;4.57;;;4.10;;
10910;SDS011;5508;49.150;11.030;2023-04-30T11:02:41;5.37;;;4.50;;
10910;SDS011;5508;49.150;11.030;2023-04-30T11:05:44;5.47;;;4.90;;
10910;SDS011;5508;49.150;11.030;2023-04-30T11:08:44;5.63;;;4.70;;
10910;SDS011;5508;49.150;11.030;2023-04-30T11:11:45;4.43;;;4.03;;
10910;SDS011;5508;49.150;11.030;2023-04-30T11:14:49;5.80;;;4.57;;
10910;SDS011;5508;49.150;11.030;2023-04-30T11:17:50;5.37;;;4.43;;
10910;SDS011;5508;49.150;11.030;2023-04-30T11:20:56;5.40;;;4.37;;
10910;SDS011;5508;49.150;11.030;2023-04-30T11:24:01;4.60;;;4.20;;
10910;SDS011;5508;49.150;11.030;2023-04-30T11:27:05;5.27;;;4.67;;
10910;SDS011;5508;49.150;11.030;2023-04-30T11:30:09;4.50;;;4.00;;
10910;SDS011;5508;49.150;11.030;2023-04-30T11:33:14;5.90;;;4.83;;
10910;SDS011;5508;49.150;11.030;2023-04-30T11:36:15;3.73;;;3.40;;
10910;SDS011;5508;49.150;11.030;2023-04-30T11:39:18;4.67;;;4.20;;
10910;SDS011;5508;49.150;11.030;2023-04-30T11:42:19;4.80;;;4.10;;
10910;SDS011;5508;49.150;11.030;2023-04-30T11:45:20;4.70;;;3.80;;
10910;SDS011;5508;49.150;11.030;2023-04-30T11:48:22;3.97;;;3.57;;
10910;SDS011;5508;49.150;11.030;2023-04-30T11:51:22;4.77;;;3.70;;
10910;SDS011;5508;49.150;11.030;2023-04-30T11:54:26;4.13;;;3.73;;
10910;SDS011;5508;49.150;11.030;2023-04-30T11:57:33;4.43;;;3.97;;
10910;SDS011;5508;49.150;11.030;2023-04-30T12:00:39;5.30;;;4.27;;
10910;SDS011;5508;49.150;11.030;2023-04-30T12:03:44;4.47;;;4.00;;
10910;SDS011;5508;49.150;11.030;2023-04-30T12:06:45;4.10;;;3.70;;
10910;SDS011;5508;49.150;11.030;2023-04-30T12:09:55;4.43;;;4.00;;
10910;SDS011;5508;49.150;11.030;2023-04-30T12:12:58;6.13;;;4.00;;
10910;SDS011;5508;49.150;11.030;2023-04-30T12:15:59;4.00;;;3.67;;
10910;SDS011;5508;49.150;11.030;2023-04-30T12:18:59;4.67;;;3.67;;
10910;SDS011;5508;49.150;11.030;2023-04-30T12:22:02;6.00;;;3.43;;
10910;SDS011;5508;49.150;11.030;2023-04-30T12:25:06;7.10;;;3.70;;
10910;SDS011;5508;49.150;11.030;2023-04-30T12:28:10;4.87;;;3.43;;
10910;SDS011;5508;49.150;11.030;2023-04-30T12:31:11;4.30;;;3.53;;
10910;SDS011;5508;49.150;11.030;2023-04-30T12:34:12;4.17;;;3.30;;
10910;SDS011;5508;49.150;11.030;2023-04-30T12:37:14;3.87;;;2.93;;
10910;SDS011;5508;49.150;11.030;2023-04-30T12:40:17;3.30;;;3.00;;
10910;SDS011;5508;49.150;11.030;2023-04-30T12:43:25;6.27;;;3.03;;
10910;SDS011;5508;49.150;11.030;2023-04-30T12:46:26;3.60;;;3.30;;
10910;SDS011;5508;49.150;11.030;2023-04-30T12:49:27;4.37;;;3.30;;
10910;SDS011;5508;49.150;11.030;2023-04-30T12:52:32;5.47;;;3.53;;
10910;SDS011;5508;49.150;11.030;2023-04-30T12:55:33;3.63;;;3.10;;
10910;SDS011;5508;49.150;11.030;2023-04-30T12:58:36;3.70;;;3.00;;
10910;SDS011;5508;49.150;11.030;2023-04-30T13:01:42;4.47;;;3.07;;
10910;SDS011;5508;49.150;11.030;2023-04-30T13:04:44;4.10;;;3.43;;
10910;SDS011;5508;49.150;11.030;2023-04-30T13:07:44;2.90;;;2.70;;
10910;SDS011;5508;49.150;11.030;2023-04-30T13:10:45;4.17;;;3.07;;
10910;SDS011;5508;49.150;11.030;2023-04-30T13:13:47;3.80;;;3.10;;
10910;SDS011;5508;49.150;11.030;2023-04-30T13:16:47;3.33;;;3.03;;
10910;SDS011;5508;49.150;11.030;2023-04-30T13:19:48;3.43;;;2.80;;
10910;SDS011;5508;49.150;11.030;2023-04-30T13:22:49;2.90;;;2.70;;
10910;SDS011;5508;49.150;11.030;2023-04-30T13:25:50;3.40;;;2.60;;
10910;SDS011;5508;49.150;11.030;2023-04-30T13:28:51;3.30;;;3.00;;
10910;SDS011;5508;49.150;11.030;2023-04-30T13:31:51;3.07;;;2.83;;
10910;SDS011;5508;49.150;11.030;2023-04-30T13:34:52;3.40;;;3.07;;
10910;SDS011;5508;49.150;11.030;2023-04-30T13:37:57;3.30;;;2.80;;
10910;SDS011;5508;49.150;11.030;2023-04-30T13:40:58;5.27;;;3.00;;
10910;SDS011;5508;49.150;11.030;2023-04-30T13:43:59;3.10;;;2.77;;
10910;SDS011;5508;49.150;11.030;2023-04-30T13:46:59;3.17;;;2.87;;
10910;SDS011;5508;49.150;11.030;2023-04-30T13:50:00;2.90;;;2.60;;
10910;SDS011;5508;49.150;11.030;2023-04-30T13:53:02;3.33;;;3.00;;
10910;SDS011;5508;49.150;11.030;2023-04-30T13:56:02;28.20;;;3.77;;
10910;SDS011;5508;49.150;11.030;2023-04-30T13:59:03;2.70;;;2.50;;
10910;SDS011;5508;49.150;11.030;2023-04-30T14:02:04;3.90;;;3.17;;
10910;SDS011;5508;49.150;11.030;2023-04-30T14:05:05;3.50;;;3.10;;
10910;SDS011;5508;49.150;11.030;2023-04-30T14:08:06;2.83;;;2.63;;
10910;SDS011;5508;49.150;11.030;2023-04-30T14:11:06;3.20;;;2.67;;
10910;SDS011;5508;49.150;11.030;2023-04-30T14:14:07;3.57;;;3.03;;
10910;SDS011;5508;49.150;11.030;2023-04-30T14:17:08;3.77;;;2.30;;
10910;SDS011;5508;49.150;11.030;2023-04-30T14:20:08;5.03;;;3.13;;
10910;SDS011;5508;49.150;11.030;2023-04-30T14:23:10;3.57;;;2.70;;
10910;SDS011;5508;49.150;11.030;2023-04-30T14:26:11;4.60;;;2.67;;
10910;SDS011;5508;49.150;11.030;2023-04-30T14:29:12;3.30;;;3.03;;
10910;SDS011;5508;49.150;11.030;2023-04-30T14:32:13;5.83;;;2.70;;
10910;SDS011;5508;49.150;11.030;2023-04-30T14:35:13;3.50;;;2.73;;
10910;SDS011;5508;49.150;11.030;2023-04-30T14:38:14;3.90;;;2.70;;
10910;SDS011;5508;49.150;11.030;2023-04-30T14:41:14;4.17;;;2.90;;
10910;SDS011;5508;49.150;11.030;2023-04-30T14:44:15;3.77;;;2.47;;
10910;SDS011;5508;49.150;11.030;2023-04-30T14:47:16;2.73;;;2.47;;
10910;SDS011;5508;49.150;11.030;2023-04-30T14:50:16;3.10;;;2.27;;
10910;SDS011;5508;49.150;11.030;2023-04-30T14:53:17;3.50;;;2.50;;
10910;SDS011;5508;49.150;11.030;2023-04-30T14:56:17;2.88;;;2.60;;
10910;SDS011;5508;49.150;11.030;2023-04-30T14:59:18;2.47;;;2.27;;
10910;SDS011;5508;49.150;11.030;2023-04-30T15:02:19;3.97;;;2.20;;
10910;SDS011;5508;49.150;11.030;2023-04-30T15:05:20;2.95;;;2.10;;
10910;SDS011;5508;49.150;11.030;2023-04-30T15:08:21;2.60;;;2.40;;
10910;SDS011;5508;49.150;11.030;2023-04-30T15:11:21;4.45;;;2.40;;
10910;SDS011;5508;49.150;11.030;2023-04-30T15:14:23;5.57;;;4.40;;
10910;SDS011;5508;49.150;11.030;2023-04-30T15:17:23;3.40;;;2.97;;
10910;SDS011;5508;49.150;11.030;2023-04-30T15:20:24;4.63;;;4.20;;
10910;SDS011;5508;49.150;11.030;2023-04-30T15:23:24;2.20;;;2.00;;
10910;SDS011;5508;49.150;11.030;2023-04-30T15:26:26;5.87;;;3.13;;
10910;SDS011;5508;49.150;11.030;2023-04-30T15:29:27;7.13;;;2.87;;
10910;SDS011;5508;49.150;11.030;2023-04-30T15:32:28;3.27;;;2.43;;
10910;SDS011;5508;49.150;11.030;2023-04-30T15:35:29;3.30;;;2.50;;
10910;SDS011;5508;49.150;11.030;2023-04-30T15:38:30;7.50;;;3.47;;
10910;SDS011;5508;49.150;11.030;2023-04-30T15:41:30;2.90;;;2.50;;
10910;SDS011;5508;49.150;11.030;2023-04-30T15:44:31;4.40;;;3.30;;
10910;SDS011;5508;49.150;11.030;2023-04-30T15:47:32;3.67;;;2.37;;
10910;SDS011;5508;49.150;11.030;2023-04-30T15:50:32;3.43;;;2.70;;
10910;SDS011;5508;49.150;11.030;2023-04-30T15:53:33;4.87;;;3.13;;
10910;SDS011;5508;49.150;11.030;2023-04-30T15:56:34;4.50;;;2.27;;
10910;SDS011;5508;49.150;11.030;2023-04-30T15:59:34;4.30;;;2.67;;
10910;SDS011;5508;49.150;11.030;2023-04-30T16:02:35;5.27;;;2.67;;
10910;SDS011;5508;49.150;11.030;2023-04-30T16:05:35;6.47;;;2.57;;
10910;SDS011;5508;49.150;11.030;2023-04-30T16:08:39;4.30;;;2.57;;
10910;SDS011;5508;49.150;11.030;2023-04-30T16:11:40;2.57;;;2.10;;
10910;SDS011;5508;49.150;11.030;2023-04-30T16:14:41;3.87;;;2.17;;
10910;SDS011;5508;49.150;11.030;2023-04-30T16:17:41;2.63;;;2.23;;
10910;SDS011;5508;49.150;11.030;2023-04-30T16:20:43;2.80;;;2.23;;
10910;SDS011;5508;49.150;11.030;2023-04-30T16:23:45;4.03;;;2.70;;
10910;SDS011;5508;49.150;11.030;2023-04-30T16:26:46;3.07;;;2.07;;
10910;SDS011;5508;49.150;11.030;2023-04-30T16:29:47;2.63;;;2.00;;
10910;SDS011;5508;49.150;11.030;2023-04-30T16:32:47;4.43;;;2.23;;
10910;SDS011;5508;49.150;11.030;2023-04-30T16:35:48;5.97;;;2.00;;
10910;SDS011;5508;49.150;11.030;2023-04-30T16:38:48;4.43;;;2.67;;
10910;SDS011;5508;49.150;11.030;2023-04-30T16:41:49;3.53;;;2.10;;
10910;SDS011;5508;49.150;11.030;2023-04-30T16:44:49;3.03;;;2.00;;
10910;SDS011;5508;49.150;11.030;2023-04-30T16:47:50;2.77;;;2.03;;
10910;SDS011;5508;49.150;11.030;2023-04-30T16:50:51;2.80;;;2.17;;
10910;SDS011;5508;49.150;11.030;2023-04-30T16:53:51;3.67;;;2.37;;
10910;SDS011;5508;49.150;11.030;2023-04-30T16:56:52;4.67;;;2.10;;
10910;SDS011;5508;49.150;11.030;2023-04-30T16:59:53;2.80;;;2.07;;
10910;SDS011;5508;49.150;11.030;2023-04-30T17:02:53;3.90;;;2.27;;
10910;SDS011;5508;49.150;11.030;2023-04-30T17:05:54;2.10;;;1.90;;
10910;SDS011;5508;49.150;11.030;2023-04-30T17:08:54;2.13;;;1.93;;
10910;SDS011;5508;49.150;11.030;2023-04-30T17:11:55;2.40;;;1.97;;
10910;SDS011;5508;49.150;11.030;2023-04-30T17:14:56;3.77;;;1.90;;
10910;SDS011;5508;49.150;11.030;2023-04-30T17:17:57;2.90;;;1.93;;
10910;SDS011;5508;49.150;11.030;2023-04-30T17:20:57;3.90;;;1.97;;
10910;SDS011;5508;49.150;11.030;2023-04-30T17:23:58;2.27;;;2.03;;
10910;SDS011;5508;49.150;11.030;2023-04-30T17:26:58;6.00;;;1.87;;
10910;SDS011;5508;49.150;11.030;2023-04-30T17:30:00;2.37;;;1.90;;
10910;SDS011;5508;49.150;11.030;2023-04-30T17:33:03;4.37;;;1.90;;
10910;SDS011;5508;49.150;11.030;2023-04-30T17:36:05;3.30;;;1.93;;
10910;SDS011;5508;49.150;11.030;2023-04-30T17:39:07;1.87;;;1.77;;
10910;SDS011;5508;49.150;11.030;2023-04-30T17:42:07;2.10;;;1.90;;
10910;SDS011;5508;49.150;11.030;2023-04-30T17:45:08;2.87;;;2.17;;
10910;SDS011;5508;49.150;11.030;2023-04-30T17:48:09;4.17;;;2.43;;
10910;SDS011;5508;49.150;11.030;2023-04-30T17:51:10;3.47;;;2.90;;
10910;SDS011;5508;49.150;11.030;2023-04-30T17:54:11;5.90;;;2.80;;
10910;SDS011;5508;49.150;11.030;2023-04-30T17:57:11;3.53;;;2.90;;
10910;SDS011;5508;49.150;11.030;2023-04-30T18:00:12;5.73;;;3.07;;
10910;SDS011;5508;49.150;11.030;2023-04-30T18:03:14;4.73;;;2.60;;
10910;SDS011;5508;49.150;11.030;2023-04-30T18:06:14;3.57;;;2.33;;
10910;SDS011;5508;49.150;11.030;2023-04-30T18:09:15;2.70;;;2.33;;
10910;SDS011;5508;49.150;11.030;2023-04-30T18:12:16;2.80;;;2.23;;
10910;SDS011;5508;49.150;11.030;2023-04-30T18:15:17;4.80;;;2.40;;
10910;SDS011;5508;49.150;11.030;2023-04-30T18:18:18;4.80;;;3.87;;
10910;SDS011;5508;49.150;11.030;2023-04-30T18:21:18;5.07;;;4.50;;
10910;SDS011;5508;49.150;11.030;2023-04-30T18:24:19;5.67;;;4.00;;
10910;SDS011;5508;49.150;11.030;2023-04-30T18:27:20;7.13;;;4.70;;